SKW3065 KSBA-KSAN
Flight info
| Callsign | SKW3065 |
|---|---|
| Flight time | 0h 42m |
| Altitude | 11000 |
| Route | KWANG VTU V208 HUBRD CARDI MZB |
| Aircraft | E75L/M-SDE3GILORVW/S |
Departure
| Time | 2026-05-03 22:09 |
|---|---|
| Airport | Santa Barbara Municipal Airport (KSBA) |
Arrival
| Time | 2026-05-03 22:51 |
|---|---|
| Airport | San Diego International Airport (KSAN) |
| Time | Latitude | Longitude | Altitude | Speed | Heading |
|---|---|---|---|---|---|
| 2026-05-03 21:44 | 34.42625 | -119.83755 | 29 ft | 0 kts | 130° |
| 2026-05-03 21:58 | 34.42628 | -119.83759 | 29 ft | 2 kts | 130° |
| 2026-05-03 21:58 | 34.42640 | -119.83768 | 29 ft | 2 kts | 168° |
| 2026-05-03 21:58 | 34.42656 | -119.83768 | 29 ft | 2 kts | 200° |
| 2026-05-03 21:59 | 34.42668 | -119.83758 | 29 ft | 2 kts | 232° |
| 2026-05-03 21:59 | 34.42674 | -119.83742 | 29 ft | 1 kts | 263° |
| 2026-05-03 21:59 | 34.42674 | -119.83734 | 29 ft | 1 kts | 271° |
| 2026-05-03 21:59 | 34.42674 | -119.83731 | 29 ft | 0 kts | 268° |
| 2026-05-03 22:01 | 34.42674 | -119.83732 | 29 ft | 0 kts | 268° |
| 2026-05-03 22:01 | 34.42674 | -119.83734 | 29 ft | 0 kts | 268° |
| 2026-05-03 22:02 | 34.42674 | -119.83736 | 29 ft | 0 kts | 268° |
| 2026-05-03 22:02 | 34.42674 | -119.83739 | 29 ft | 0 kts | 268° |
| 2026-05-03 22:03 | 34.42674 | -119.83746 | 29 ft | 1 kts | 267° |
| 2026-05-03 22:03 | 34.42673 | -119.83762 | 29 ft | 2 kts | 267° |
| 2026-05-03 22:03 | 34.42672 | -119.83797 | 29 ft | 5 kts | 268° |
| 2026-05-03 22:03 | 34.42671 | -119.83852 | 29 ft | 7 kts | 268° |
| 2026-05-03 22:04 | 34.42670 | -119.83926 | 29 ft | 10 kts | 268° |
| 2026-05-03 22:04 | 34.42667 | -119.84021 | 29 ft | 12 kts | 268° |
| 2026-05-03 22:04 | 34.42665 | -119.84126 | 29 ft | 12 kts | 268° |
| 2026-05-03 22:04 | 34.42662 | -119.84233 | 29 ft | 13 kts | 268° |
| 2026-05-03 22:05 | 34.42659 | -119.84345 | 29 ft | 13 kts | 268° |
| 2026-05-03 22:05 | 34.42657 | -119.84463 | 29 ft | 14 kts | 268° |
| 2026-05-03 22:05 | 34.42655 | -119.84584 | 29 ft | 14 kts | 269° |
| 2026-05-03 22:05 | 34.42652 | -119.84712 | 29 ft | 15 kts | 268° |
| 2026-05-03 22:06 | 34.42649 | -119.84844 | 29 ft | 15 kts | 268° |
| 2026-05-03 22:06 | 34.42646 | -119.84980 | 29 ft | 16 kts | 268° |
| 2026-05-03 22:06 | 34.42642 | -119.85122 | 29 ft | 17 kts | 268° |
| 2026-05-03 22:06 | 34.42640 | -119.85266 | 28 ft | 17 kts | 269° |
| 2026-05-03 22:07 | 34.42643 | -119.85392 | 28 ft | 12 kts | 286° |
| 2026-05-03 22:07 | 34.42704 | -119.85455 | 29 ft | 12 kts | 355° |
| 2026-05-03 22:07 | 34.42751 | -119.85415 | 29 ft | 9 kts | 87° |
| 2026-05-03 22:07 | 34.42752 | -119.85409 | 29 ft | 0 kts | 87° |
| 2026-05-03 22:08 | 34.42754 | -119.85310 | 29 ft | 41 kts | 89° |
| 2026-05-03 22:08 | 34.42769 | -119.84663 | 29 ft | 109 kts | 89° |
| 2026-05-03 22:08 | 34.42795 | -119.83525 | 30 ft | 161 kts | 89° |
| 2026-05-03 22:09 | 34.42838 | -119.82101 | 373 ft | 174 kts | 88° |
| 2026-05-03 22:09 | 34.42845 | -119.80581 | 841 ft | 188 kts | 93° |
| 2026-05-03 22:09 | 34.42790 | -119.78970 | 1213 ft | 184 kts | 88° |
| 2026-05-03 22:10 | 34.42907 | -119.76127 | 1308 ft | 168 kts | 88° |
| 2026-05-03 22:10 | 34.42810 | -119.74796 | 1973 ft | 160 kts | 116° |
| 2026-05-03 22:10 | 34.42160 | -119.73636 | 2273 ft | 177 kts | 127° |
| 2026-05-03 22:10 | 34.41436 | -119.72446 | 2894 ft | 176 kts | 127° |
| 2026-05-03 22:11 | 34.40654 | -119.71221 | 3264 ft | 193 kts | 123° |
| 2026-05-03 22:11 | 34.39997 | -119.69790 | 3777 ft | 200 kts | 119° |
| 2026-05-03 22:11 | 34.39310 | -119.68291 | 4319 ft | 207 kts | 121° |
| 2026-05-03 22:11 | 34.38582 | -119.66766 | 4858 ft | 214 kts | 121° |
| 2026-05-03 22:12 | 34.37810 | -119.65186 | 5342 ft | 224 kts | 122° |
| 2026-05-03 22:12 | 34.36996 | -119.63541 | 5848 ft | 234 kts | 122° |
| 2026-05-03 22:12 | 34.36142 | -119.61830 | 6378 ft | 242 kts | 122° |
| 2026-05-03 22:12 | 34.35258 | -119.60066 | 6905 ft | 251 kts | 122° |
| 2026-05-03 22:13 | 34.34344 | -119.58244 | 7431 ft | 259 kts | 123° |
| 2026-05-03 22:13 | 34.33390 | -119.56350 | 7955 ft | 267 kts | 123° |
| 2026-05-03 22:13 | 34.32416 | -119.54415 | 8476 ft | 274 kts | 123° |
| 2026-05-03 22:13 | 34.31422 | -119.52444 | 9004 ft | 280 kts | 123° |
| 2026-05-03 22:14 | 34.30455 | -119.50349 | 9519 ft | 288 kts | 119° |
| 2026-05-03 22:14 | 34.29559 | -119.48181 | 10047 ft | 294 kts | 119° |
| 2026-05-03 22:14 | 34.28633 | -119.45947 | 10572 ft | 299 kts | 119° |
| 2026-05-03 22:14 | 34.27692 | -119.43684 | 10859 ft | 313 kts | 119° |
| 2026-05-03 22:15 | 34.26670 | -119.41226 | 10906 ft | 335 kts | 119° |
| 2026-05-03 22:15 | 34.25602 | -119.38660 | 10909 ft | 352 kts | 119° |
| 2026-05-03 22:15 | 34.24500 | -119.36012 | 10892 ft | 354 kts | 118° |
| 2026-05-03 22:15 | 34.23380 | -119.33324 | 10889 ft | 353 kts | 119° |
| 2026-05-03 22:16 | 34.22297 | -119.30714 | 10878 ft | 351 kts | 119° |
| 2026-05-03 22:16 | 34.21191 | -119.28072 | 10878 ft | 351 kts | 120° |
| 2026-05-03 22:16 | 34.20322 | -119.25994 | 10882 ft | 352 kts | 120° |
| 2026-05-03 22:16 | 34.19222 | -119.23366 | 10883 ft | 352 kts | 119° |
| 2026-05-03 22:17 | 34.18127 | -119.20748 | 10884 ft | 351 kts | 119° |
| 2026-05-03 22:17 | 34.17020 | -119.18102 | 10894 ft | 354 kts | 120° |
| 2026-05-03 22:17 | 34.15916 | -119.15469 | 10882 ft | 353 kts | 119° |
| 2026-05-03 22:17 | 34.14816 | -119.12846 | 10889 ft | 353 kts | 120° |
| 2026-05-03 22:18 | 34.13697 | -119.10179 | 10888 ft | 352 kts | 120° |
| 2026-05-03 22:18 | 34.12570 | -119.07599 | 10941 ft | 351 kts | 127° |
| 2026-05-03 22:18 | 34.10809 | -119.05612 | 10975 ft | 346 kts | 154° |
| 2026-05-03 22:18 | 34.08551 | -119.04758 | 10990 ft | 342 kts | 174° |
| 2026-05-03 22:19 | 34.06202 | -119.04439 | 10967 ft | 340 kts | 175° |
| 2026-05-03 22:19 | 34.03811 | -119.04160 | 10955 ft | 339 kts | 176° |
| 2026-05-03 22:19 | 34.01482 | -119.03906 | 10954 ft | 342 kts | 176° |
| 2026-05-03 22:19 | 33.99090 | -119.03651 | 10953 ft | 341 kts | 176° |
| 2026-05-03 22:20 | 33.96747 | -119.03404 | 10952 ft | 339 kts | 176° |
| 2026-05-03 22:20 | 33.94390 | -119.03155 | 10951 ft | 339 kts | 177° |
| 2026-05-03 22:20 | 33.92044 | -119.02910 | 10985 ft | 339 kts | 177° |
| 2026-05-03 22:20 | 33.89698 | -119.02664 | 10938 ft | 340 kts | 176° |
| 2026-05-03 22:21 | 33.87342 | -119.02417 | 10974 ft | 338 kts | 176° |
| 2026-05-03 22:21 | 33.84949 | -119.02168 | 10943 ft | 340 kts | 176° |
| 2026-05-03 22:21 | 33.82595 | -119.01921 | 10949 ft | 339 kts | 177° |
| 2026-05-03 22:21 | 33.80255 | -119.01559 | 10941 ft | 344 kts | 165° |
| 2026-05-03 22:22 | 33.78165 | -119.00143 | 10975 ft | 350 kts | 139° |
| 2026-05-03 22:22 | 33.76559 | -118.97932 | 10973 ft | 353 kts | 133° |
| 2026-05-03 22:22 | 33.74995 | -118.95660 | 10946 ft | 351 kts | 132° |
| 2026-05-03 22:22 | 33.73443 | -118.93419 | 10958 ft | 353 kts | 132° |
| 2026-05-03 22:23 | 33.71855 | -118.91129 | 10944 ft | 352 kts | 132° |
| 2026-05-03 22:23 | 33.70285 | -118.88869 | 10951 ft | 353 kts | 133° |
| 2026-05-03 22:23 | 33.68735 | -118.86639 | 10959 ft | 354 kts | 133° |
| 2026-05-03 22:23 | 33.67163 | -118.84379 | 10947 ft | 351 kts | 133° |
| 2026-05-03 22:24 | 33.65592 | -118.82122 | 10960 ft | 351 kts | 133° |
| 2026-05-03 22:24 | 33.64030 | -118.79879 | 10959 ft | 352 kts | 133° |
| 2026-05-03 22:24 | 33.62453 | -118.77615 | 10948 ft | 352 kts | 133° |
| 2026-05-03 22:24 | 33.60894 | -118.75380 | 10946 ft | 351 kts | 133° |
| 2026-05-03 22:25 | 33.59330 | -118.73140 | 10949 ft | 353 kts | 132° |
| 2026-05-03 22:25 | 33.57753 | -118.70879 | 10955 ft | 351 kts | 133° |
| 2026-05-03 22:25 | 33.56175 | -118.68621 | 10955 ft | 352 kts | 133° |
| 2026-05-03 22:25 | 33.54595 | -118.66361 | 10958 ft | 354 kts | 133° |
| 2026-05-03 22:26 | 33.53034 | -118.64129 | 10948 ft | 353 kts | 133° |
| 2026-05-03 22:26 | 33.51448 | -118.61865 | 10958 ft | 353 kts | 133° |
| 2026-05-03 22:26 | 33.49871 | -118.59612 | 10949 ft | 353 kts | 133° |
| 2026-05-03 22:26 | 33.48292 | -118.57359 | 10959 ft | 353 kts | 133° |
| 2026-05-03 22:27 | 33.46706 | -118.55096 | 10951 ft | 354 kts | 133° |
| 2026-05-03 22:27 | 33.45145 | -118.52872 | 10950 ft | 353 kts | 133° |
| 2026-05-03 22:27 | 33.43556 | -118.50610 | 10971 ft | 353 kts | 133° |
| 2026-05-03 22:27 | 33.41972 | -118.48354 | 10967 ft | 352 kts | 133° |
| 2026-05-03 22:28 | 33.40403 | -118.46123 | 10967 ft | 353 kts | 133° |
| 2026-05-03 22:28 | 33.38818 | -118.43869 | 10971 ft | 353 kts | 133° |
| 2026-05-03 22:28 | 33.37538 | -118.41354 | 10969 ft | 360 kts | 110° |
| 2026-05-03 22:28 | 33.37040 | -118.38442 | 10994 ft | 364 kts | 101° |
| 2026-05-03 22:29 | 33.36650 | -118.35443 | 10975 ft | 364 kts | 101° |
| 2026-05-03 22:29 | 33.36258 | -118.32439 | 10964 ft | 362 kts | 102° |
| 2026-05-03 22:29 | 33.35869 | -118.29468 | 10962 ft | 364 kts | 102° |
| 2026-05-03 22:29 | 33.35482 | -118.26508 | 10955 ft | 363 kts | 102° |
| 2026-05-03 22:30 | 33.35086 | -118.23494 | 10947 ft | 363 kts | 102° |
| 2026-05-03 22:30 | 33.34690 | -118.20483 | 10952 ft | 366 kts | 102° |
| 2026-05-03 22:30 | 33.34299 | -118.17516 | 10938 ft | 365 kts | 102° |
| 2026-05-03 22:30 | 33.33902 | -118.14520 | 10927 ft | 363 kts | 102° |
| 2026-05-03 22:31 | 33.33506 | -118.11524 | 10922 ft | 363 kts | 102° |
| 2026-05-03 22:31 | 33.33113 | -118.08559 | 10938 ft | 364 kts | 102° |
| 2026-05-03 22:31 | 33.32718 | -118.05587 | 10924 ft | 365 kts | 102° |
| 2026-05-03 22:31 | 33.32320 | -118.02596 | 10922 ft | 364 kts | 102° |
| 2026-05-03 22:32 | 33.31918 | -117.99576 | 10928 ft | 364 kts | 102° |
| 2026-05-03 22:32 | 33.31519 | -117.96594 | 10929 ft | 364 kts | 102° |
| 2026-05-03 22:32 | 33.31120 | -117.93616 | 10926 ft | 365 kts | 102° |
| 2026-05-03 22:32 | 33.30721 | -117.90635 | 10914 ft | 364 kts | 102° |
| 2026-05-03 22:33 | 33.30320 | -117.87650 | 10925 ft | 363 kts | 102° |
| 2026-05-03 22:33 | 33.29918 | -117.84662 | 10919 ft | 364 kts | 102° |
| 2026-05-03 22:33 | 33.29514 | -117.81670 | 10931 ft | 364 kts | 102° |
| 2026-05-03 22:33 | 33.29108 | -117.78665 | 10923 ft | 364 kts | 102° |
| 2026-05-03 22:34 | 33.28704 | -117.75684 | 10923 ft | 366 kts | 102° |
| 2026-05-03 22:34 | 33.28272 | -117.72716 | 10888 ft | 362 kts | 103° |
| 2026-05-03 22:34 | 33.27572 | -117.69860 | 10725 ft | 362 kts | 120° |
| 2026-05-03 22:34 | 33.26342 | -117.67245 | 10194 ft | 355 kts | 125° |
| 2026-05-03 22:35 | 33.24962 | -117.64900 | 9734 ft | 342 kts | 131° |
| 2026-05-03 22:35 | 33.23397 | -117.62875 | 9358 ft | 327 kts | 139° |
| 2026-05-03 22:35 | 33.21732 | -117.61083 | 8933 ft | 313 kts | 152° |
| 2026-05-03 22:35 | 33.19835 | -117.59914 | 8535 ft | 300 kts | 156° |
| 2026-05-03 22:36 | 33.18005 | -117.58844 | 8149 ft | 293 kts | 156° |
| 2026-05-03 22:36 | 33.16215 | -117.57742 | 7925 ft | 280 kts | 148° |
| 2026-05-03 22:36 | 33.14713 | -117.56346 | 7932 ft | 272 kts | 142° |
| 2026-05-03 22:36 | 33.13383 | -117.54713 | 7931 ft | 277 kts | 138° |
| 2026-05-03 22:37 | 33.11969 | -117.53147 | 7938 ft | 278 kts | 142° |
| 2026-05-03 22:37 | 33.10481 | -117.51666 | 7940 ft | 277 kts | 144° |
| 2026-05-03 22:37 | 33.08970 | -117.50238 | 7945 ft | 279 kts | 144° |
| 2026-05-03 22:37 | 33.07573 | -117.48592 | 7954 ft | 279 kts | 139° |
| 2026-05-03 22:38 | 33.06137 | -117.47029 | 7946 ft | 279 kts | 143° |
| 2026-05-03 22:38 | 33.04647 | -117.45585 | 7951 ft | 278 kts | 145° |
| 2026-05-03 22:38 | 33.03099 | -117.44168 | 7949 ft | 278 kts | 147° |
| 2026-05-03 22:38 | 33.01559 | -117.42793 | 7950 ft | 278 kts | 144° |
| 2026-05-03 22:39 | 33.00348 | -117.40962 | 7984 ft | 284 kts | 123° |
| 2026-05-03 22:39 | 32.99311 | -117.38980 | 7957 ft | 282 kts | 127° |
| 2026-05-03 22:39 | 32.98183 | -117.37087 | 7977 ft | 285 kts | 130° |
| 2026-05-03 22:39 | 32.96991 | -117.35199 | 7978 ft | 280 kts | 131° |
| 2026-05-03 22:40 | 32.95806 | -117.33374 | 7841 ft | 279 kts | 132° |
| 2026-05-03 22:40 | 32.94604 | -117.31544 | 7708 ft | 279 kts | 131° |
| 2026-05-03 22:40 | 32.93401 | -117.29725 | 7573 ft | 279 kts | 132° |
| 2026-05-03 22:40 | 32.92207 | -117.27926 | 7437 ft | 278 kts | 132° |
| 2026-05-03 22:41 | 32.90998 | -117.26108 | 7301 ft | 278 kts | 131° |
| 2026-05-03 22:41 | 32.89807 | -117.24317 | 7162 ft | 277 kts | 132° |
| 2026-05-03 22:41 | 32.88618 | -117.22530 | 7036 ft | 277 kts | 132° |
| 2026-05-03 22:41 | 32.87423 | -117.20736 | 6905 ft | 276 kts | 132° |
| 2026-05-03 22:42 | 32.86257 | -117.18986 | 6758 ft | 265 kts | 132° |
| 2026-05-03 22:42 | 32.85136 | -117.17302 | 6590 ft | 252 kts | 132° |
| 2026-05-03 22:42 | 32.84074 | -117.15712 | 6431 ft | 241 kts | 132° |
| 2026-05-03 22:42 | 32.83050 | -117.14175 | 6270 ft | 231 kts | 133° |
| 2026-05-03 22:43 | 32.82069 | -117.12707 | 6116 ft | 226 kts | 133° |
| 2026-05-03 22:43 | 32.81090 | -117.11243 | 6000 ft | 226 kts | 131° |
| 2026-05-03 22:43 | 32.80122 | -117.09795 | 5992 ft | 226 kts | 132° |
| 2026-05-03 22:43 | 32.79133 | -117.08316 | 5989 ft | 229 kts | 132° |
| 2026-05-03 22:44 | 32.78142 | -117.06818 | 5984 ft | 227 kts | 126° |
| 2026-05-03 22:44 | 32.77550 | -117.05032 | 6043 ft | 244 kts | 109° |
| 2026-05-03 22:44 | 32.77078 | -117.03107 | 5980 ft | 238 kts | 110° |
| 2026-05-03 22:44 | 32.76632 | -117.01282 | 5965 ft | 226 kts | 109° |
| 2026-05-03 22:45 | 32.76196 | -116.99493 | 5682 ft | 226 kts | 109° |
| 2026-05-03 22:45 | 32.75563 | -116.97821 | 5378 ft | 218 kts | 131° |
| 2026-05-03 22:45 | 32.74376 | -116.96896 | 5148 ft | 202 kts | 174° |
| 2026-05-03 22:45 | 32.73014 | -116.96994 | 4856 ft | 198 kts | 191° |
| 2026-05-03 22:46 | 32.71639 | -116.97312 | 4474 ft | 201 kts | 193° |
| 2026-05-03 22:46 | 32.70274 | -116.97670 | 4096 ft | 203 kts | 194° |
| 2026-05-03 22:46 | 32.69098 | -116.98487 | 3723 ft | 195 kts | 236° |
| 2026-05-03 22:46 | 32.68774 | -116.99968 | 3415 ft | 185 kts | 269° |
| 2026-05-03 22:47 | 32.68934 | -117.01405 | 3163 ft | 169 kts | 288° |
| 2026-05-03 22:47 | 32.69300 | -117.02676 | 3077 ft | 160 kts | 287° |
| 2026-05-03 22:47 | 32.69644 | -117.03946 | 2852 ft | 161 kts | 287° |
| 2026-05-03 22:47 | 32.69978 | -117.05222 | 2646 ft | 163 kts | 286° |
| 2026-05-03 22:48 | 32.70301 | -117.06483 | 2436 ft | 160 kts | 285° |
| 2026-05-03 22:48 | 32.70610 | -117.07713 | 2186 ft | 150 kts | 285° |
| 2026-05-03 22:48 | 32.70898 | -117.08871 | 1913 ft | 140 kts | 285° |
| 2026-05-03 22:48 | 32.71160 | -117.09930 | 1660 ft | 132 kts | 285° |
| 2026-05-03 22:49 | 32.71411 | -117.10957 | 1432 ft | 128 kts | 285° |
| 2026-05-03 22:49 | 32.71660 | -117.11971 | 1242 ft | 128 kts | 285° |
| 2026-05-03 22:49 | 32.71908 | -117.12991 | 1045 ft | 128 kts | 286° |
| 2026-05-03 22:49 | 32.72152 | -117.13997 | 829 ft | 128 kts | 285° |
| 2026-05-03 22:50 | 32.72398 | -117.15008 | 632 ft | 127 kts | 285° |
| 2026-05-03 22:50 | 32.72641 | -117.16020 | 445 ft | 127 kts | 286° |
| 2026-05-03 22:50 | 32.72888 | -117.17040 | 245 ft | 129 kts | 285° |
| 2026-05-03 22:50 | 32.73132 | -117.18050 | 63 ft | 128 kts | 287° |
| 2026-05-03 22:51 | 32.73358 | -117.18983 | 23 ft | 95 kts | 287° |
| 2026-05-03 22:51 | 32.73496 | -117.19537 | 22 ft | 44 kts | 285° |
| 2026-05-03 22:51 | 32.73524 | -117.19772 | 20 ft | 24 kts | 253° |
| 2026-05-03 22:51 | 32.73490 | -117.19888 | 19 ft | 3 kts | 251° |
| 2026-05-03 22:52 | 32.73489 | -117.19891 | 19 ft | 0 kts | 251° |
| 2026-05-03 22:52 | 32.73489 | -117.19894 | 19 ft | 1 kts | 251° |
| 2026-05-03 22:52 | 32.73483 | -117.19914 | 19 ft | 4 kts | 248° |
| 2026-05-03 22:53 | 32.73457 | -117.19948 | 19 ft | 7 kts | 204° |
| 2026-05-03 22:53 | 32.73406 | -117.19961 | 19 ft | 8 kts | 193° |
| 2026-05-03 22:53 | 32.73355 | -117.19988 | 19 ft | 7 kts | 238° |
| 2026-05-03 22:53 | 32.73346 | -117.20036 | 19 ft | 3 kts | 262° |
| 2026-05-03 22:54 | 32.73345 | -117.20051 | 19 ft | 0 kts | 262° |